sensor_id;sensor_type;location;lat;lon;timestamp;P1;durP1;ratioP1;P2;durP2;ratioP2
15071;SDS011;7635;56.696;13.002;2023-12-07T00:01:14;2.60;;;1.83;;
15071;SDS011;7635;56.696;13.002;2023-12-07T00:03:41;5.43;;;3.10;;
15071;SDS011;7635;56.696;13.002;2023-12-07T00:06:08;3.33;;;2.30;;
15071;SDS011;7635;56.696;13.002;2023-12-07T00:08:36;5.73;;;2.53;;
15071;SDS011;7635;56.696;13.002;2023-12-07T00:11:03;4.23;;;2.50;;
15071;SDS011;7635;56.696;13.002;2023-12-07T00:13:31;4.17;;;2.77;;
15071;SDS011;7635;56.696;13.002;2023-12-07T00:15:58;2.53;;;2.13;;
15071;SDS011;7635;56.696;13.002;2023-12-07T00:18:24;4.83;;;2.50;;
15071;SDS011;7635;56.696;13.002;2023-12-07T00:20:51;2.57;;;2.37;;
15071;SDS011;7635;56.696;13.002;2023-12-07T00:23:18;2.43;;;2.03;;
15071;SDS011;7635;56.696;13.002;2023-12-07T00:25:46;3.87;;;2.37;;
15071;SDS011;7635;56.696;13.002;2023-12-07T00:28:13;2.40;;;2.20;;
15071;SDS011;7635;56.696;13.002;2023-12-07T00:30:41;2.47;;;1.93;;
15071;SDS011;7635;56.696;13.002;2023-12-07T00:33:08;2.33;;;2.10;;
15071;SDS011;7635;56.696;13.002;2023-12-07T00:35:35;4.07;;;2.67;;
15071;SDS011;7635;56.696;13.002;2023-12-07T00:38:02;4.10;;;2.60;;
15071;SDS011;7635;56.696;13.002;2023-12-07T00:40:31;2.57;;;2.27;;
15071;SDS011;7635;56.696;13.002;2023-12-07T00:43:02;3.57;;;2.30;;
15071;SDS011;7635;56.696;13.002;2023-12-07T00:45:29;2.23;;;1.93;;
15071;SDS011;7635;56.696;13.002;2023-12-07T00:47:57;3.23;;;2.67;;
15071;SDS011;7635;56.696;13.002;2023-12-07T00:50:24;2.83;;;2.00;;
15071;SDS011;7635;56.696;13.002;2023-12-07T00:52:51;2.13;;;1.93;;
15071;SDS011;7635;56.696;13.002;2023-12-07T00:55:18;2.63;;;2.23;;
15071;SDS011;7635;56.696;13.002;2023-12-07T00:57:45;2.80;;;2.17;;
15071;SDS011;7635;56.696;13.002;2023-12-07T01:00:14;2.53;;;2.10;;
15071;SDS011;7635;56.696;13.002;2023-12-07T01:02:41;2.27;;;2.07;;
15071;SDS011;7635;56.696;13.002;2023-12-07T01:05:08;2.77;;;2.20;;
15071;SDS011;7635;56.696;13.002;2023-12-07T01:07:35;4.00;;;2.80;;
15071;SDS011;7635;56.696;13.002;2023-12-07T01:10:02;3.60;;;2.70;;
15071;SDS011;7635;56.696;13.002;2023-12-07T01:12:30;2.90;;;2.17;;
15071;SDS011;7635;56.696;13.002;2023-12-07T01:14:57;2.47;;;2.00;;
15071;SDS011;7635;56.696;13.002;2023-12-07T01:17:26;3.63;;;2.80;;
15071;SDS011;7635;56.696;13.002;2023-12-07T01:19:53;3.37;;;2.27;;
15071;SDS011;7635;56.696;13.002;2023-12-07T01:22:20;2.37;;;2.17;;
15071;SDS011;7635;56.696;13.002;2023-12-07T01:24:47;3.30;;;2.33;;
15071;SDS011;7635;56.696;13.002;2023-12-07T01:27:14;3.27;;;2.20;;
15071;SDS011;7635;56.696;13.002;2023-12-07T01:29:41;4.13;;;2.73;;
15071;SDS011;7635;56.696;13.002;2023-12-07T01:32:08;3.17;;;2.17;;
15071;SDS011;7635;56.696;13.002;2023-12-07T01:34:37;3.90;;;2.40;;
15071;SDS011;7635;56.696;13.002;2023-12-07T01:37:04;3.90;;;2.23;;
15071;SDS011;7635;56.696;13.002;2023-12-07T01:39:31;3.27;;;2.70;;
15071;SDS011;7635;56.696;13.002;2023-12-07T01:41:58;2.70;;;2.20;;
15071;SDS011;7635;56.696;13.002;2023-12-07T01:44:25;2.50;;;2.23;;
15071;SDS011;7635;56.696;13.002;2023-12-07T01:46:53;3.10;;;2.20;;
15071;SDS011;7635;56.696;13.002;2023-12-07T01:49:20;3.63;;;2.63;;
15071;SDS011;7635;56.696;13.002;2023-12-07T01:51:48;4.07;;;2.63;;
15071;SDS011;7635;56.696;13.002;2023-12-07T01:54:15;3.73;;;2.67;;
15071;SDS011;7635;56.696;13.002;2023-12-07T01:56:43;4.13;;;2.83;;
15071;SDS011;7635;56.696;13.002;2023-12-07T01:59:10;2.87;;;2.33;;
15071;SDS011;7635;56.696;13.002;2023-12-07T02:01:38;4.00;;;2.70;;
15071;SDS011;7635;56.696;13.002;2023-12-07T02:04:05;2.97;;;2.53;;
15071;SDS011;7635;56.696;13.002;2023-12-07T02:06:32;2.93;;;2.30;;
15071;SDS011;7635;56.696;13.002;2023-12-07T02:09:00;2.73;;;2.07;;
15071;SDS011;7635;56.696;13.002;2023-12-07T02:11:28;2.30;;;2.00;;
15071;SDS011;7635;56.696;13.002;2023-12-07T02:13:55;2.40;;;1.80;;
15071;SDS011;7635;56.696;13.002;2023-12-07T02:16:23;2.83;;;2.07;;
15071;SDS011;7635;56.696;13.002;2023-12-07T02:18:53;3.57;;;2.67;;
15071;SDS011;7635;56.696;13.002;2023-12-07T02:21:28;2.33;;;2.13;;
15071;SDS011;7635;56.696;13.002;2023-12-07T02:23:57;3.40;;;2.53;;
15071;SDS011;7635;56.696;13.002;2023-12-07T02:26:29;3.60;;;2.13;;
15071;SDS011;7635;56.696;13.002;2023-12-07T02:28:57;5.33;;;2.53;;
15071;SDS011;7635;56.696;13.002;2023-12-07T02:31:24;3.97;;;2.33;;
15071;SDS011;7635;56.696;13.002;2023-12-07T02:33:51;2.33;;;2.03;;
15071;SDS011;7635;56.696;13.002;2023-12-07T02:36:19;4.00;;;2.20;;
15071;SDS011;7635;56.696;13.002;2023-12-07T02:38:46;3.53;;;2.33;;
15071;SDS011;7635;56.696;13.002;2023-12-07T02:41:13;3.27;;;2.80;;
15071;SDS011;7635;56.696;13.002;2023-12-07T02:43:42;3.40;;;2.30;;
15071;SDS011;7635;56.696;13.002;2023-12-07T02:46:09;3.27;;;2.50;;
15071;SDS011;7635;56.696;13.002;2023-12-07T02:48:37;3.57;;;2.30;;
15071;SDS011;7635;56.696;13.002;2023-12-07T02:51:04;4.67;;;2.80;;
15071;SDS011;7635;56.696;13.002;2023-12-07T02:53:31;4.70;;;3.10;;
15071;SDS011;7635;56.696;13.002;2023-12-07T02:55:58;3.63;;;2.80;;
15071;SDS011;7635;56.696;13.002;2023-12-07T02:58:25;4.07;;;2.47;;
15071;SDS011;7635;56.696;13.002;2023-12-07T03:00:54;6.87;;;3.37;;
15071;SDS011;7635;56.696;13.002;2023-12-07T03:03:21;2.97;;;2.37;;
15071;SDS011;7635;56.696;13.002;2023-12-07T03:05:48;5.30;;;3.10;;
15071;SDS011;7635;56.696;13.002;2023-12-07T03:08:15;3.80;;;2.67;;
15071;SDS011;7635;56.696;13.002;2023-12-07T03:10:42;2.67;;;2.27;;
15071;SDS011;7635;56.696;13.002;2023-12-07T03:13:09;5.33;;;2.70;;
15071;SDS011;7635;56.696;13.002;2023-12-07T03:15:36;2.67;;;2.23;;
15071;SDS011;7635;56.696;13.002;2023-12-07T03:18:04;3.90;;;2.67;;
15071;SDS011;7635;56.696;13.002;2023-12-07T03:20:32;4.23;;;3.00;;
15071;SDS011;7635;56.696;13.002;2023-12-07T03:22:59;3.60;;;2.30;;
15071;SDS011;7635;56.696;13.002;2023-12-07T03:25:26;5.77;;;2.97;;
15071;SDS011;7635;56.696;13.002;2023-12-07T03:27:53;4.50;;;3.00;;
15071;SDS011;7635;56.696;13.002;2023-12-07T03:30:20;3.33;;;2.80;;
15071;SDS011;7635;56.696;13.002;2023-12-07T03:32:47;4.60;;;3.00;;
15071;SDS011;7635;56.696;13.002;2023-12-07T03:35:16;3.50;;;2.67;;
15071;SDS011;7635;56.696;13.002;2023-12-07T03:37:43;6.80;;;3.70;;
15071;SDS011;7635;56.696;13.002;2023-12-07T03:40:10;5.27;;;3.10;;
15071;SDS011;7635;56.696;13.002;2023-12-07T03:42:37;4.73;;;3.27;;
15071;SDS011;7635;56.696;13.002;2023-12-07T03:45:05;5.67;;;3.57;;
15071;SDS011;7635;56.696;13.002;2023-12-07T03:47:32;3.90;;;3.20;;
15071;SDS011;7635;56.696;13.002;2023-12-07T03:49:59;5.47;;;3.60;;
15071;SDS011;7635;56.696;13.002;2023-12-07T03:52:27;6.17;;;3.17;;
15071;SDS011;7635;56.696;13.002;2023-12-07T03:54:54;7.27;;;4.10;;
15071;SDS011;7635;56.696;13.002;2023-12-07T03:57:21;5.47;;;3.40;;
15071;SDS011;7635;56.696;13.002;2023-12-07T03:59:49;3.97;;;3.00;;
15071;SDS011;7635;56.696;13.002;2023-12-07T04:02:17;5.63;;;3.37;;
15071;SDS011;7635;56.696;13.002;2023-12-07T04:04:44;4.63;;;3.20;;
15071;SDS011;7635;56.696;13.002;2023-12-07T04:07:11;3.93;;;3.40;;
15071;SDS011;7635;56.696;13.002;2023-12-07T04:09:39;4.87;;;2.93;;
15071;SDS011;7635;56.696;13.002;2023-12-07T04:12:06;4.70;;;3.60;;
15071;SDS011;7635;56.696;13.002;2023-12-07T04:14:33;3.97;;;3.13;;
15071;SDS011;7635;56.696;13.002;2023-12-07T04:17:00;4.13;;;3.47;;
15071;SDS011;7635;56.696;13.002;2023-12-07T04:19:27;5.37;;;3.60;;
15071;SDS011;7635;56.696;13.002;2023-12-07T04:21:54;7.53;;;3.80;;
15071;SDS011;7635;56.696;13.002;2023-12-07T04:24:21;5.37;;;3.60;;
15071;SDS011;7635;56.696;13.002;2023-12-07T04:26:50;6.67;;;3.93;;
15071;SDS011;7635;56.696;13.002;2023-12-07T04:29:17;5.53;;;3.63;;
15071;SDS011;7635;56.696;13.002;2023-12-07T04:31:44;5.50;;;3.43;;
15071;SDS011;7635;56.696;13.002;2023-12-07T04:34:11;5.97;;;3.30;;
15071;SDS011;7635;56.696;13.002;2023-12-07T04:36:38;3.77;;;3.10;;
15071;SDS011;7635;56.696;13.002;2023-12-07T04:39:05;6.43;;;3.20;;
15071;SDS011;7635;56.696;13.002;2023-12-07T04:41:33;5.23;;;3.47;;
15071;SDS011;7635;56.696;13.002;2023-12-07T04:44:01;4.30;;;3.23;;
15071;SDS011;7635;56.696;13.002;2023-12-07T04:46:28;6.63;;;3.87;;
15071;SDS011;7635;56.696;13.002;2023-12-07T04:48:55;4.43;;;3.30;;
15071;SDS011;7635;56.696;13.002;2023-12-07T04:51:22;5.37;;;3.13;;
15071;SDS011;7635;56.696;13.002;2023-12-07T04:53:49;6.53;;;4.03;;
15071;SDS011;7635;56.696;13.002;2023-12-07T04:56:16;7.97;;;3.00;;
15071;SDS011;7635;56.696;13.002;2023-12-07T04:58:43;4.43;;;2.77;;
15071;SDS011;7635;56.696;13.002;2023-12-07T05:01:12;4.87;;;3.33;;
15071;SDS011;7635;56.696;13.002;2023-12-07T05:03:39;5.07;;;3.63;;
15071;SDS011;7635;56.696;13.002;2023-12-07T05:06:06;4.30;;;3.23;;
15071;SDS011;7635;56.696;13.002;2023-12-07T05:08:33;6.53;;;3.67;;
15071;SDS011;7635;56.696;13.002;2023-12-07T05:11:00;4.60;;;3.23;;
15071;SDS011;7635;56.696;13.002;2023-12-07T05:13:27;4.50;;;3.10;;
15071;SDS011;7635;56.696;13.002;2023-12-07T05:15:54;8.30;;;3.90;;
15071;SDS011;7635;56.696;13.002;2023-12-07T05:18:23;6.00;;;3.50;;
15071;SDS011;7635;56.696;13.002;2023-12-07T05:20:50;6.50;;;3.40;;
15071;SDS011;7635;56.696;13.002;2023-12-07T05:23:17;4.80;;;3.37;;
15071;SDS011;7635;56.696;13.002;2023-12-07T05:25:44;5.87;;;3.23;;
15071;SDS011;7635;56.696;13.002;2023-12-07T05:28:12;5.43;;;3.07;;
15071;SDS011;7635;56.696;13.002;2023-12-07T05:30:39;4.00;;;2.60;;
15071;SDS011;7635;56.696;13.002;2023-12-07T05:33:06;4.20;;;3.20;;
15071;SDS011;7635;56.696;13.002;2023-12-07T05:35:35;4.10;;;2.70;;
15071;SDS011;7635;56.696;13.002;2023-12-07T05:38:02;5.63;;;3.23;;
15071;SDS011;7635;56.696;13.002;2023-12-07T05:40:29;4.67;;;3.07;;
15071;SDS011;7635;56.696;13.002;2023-12-07T05:42:57;4.57;;;3.27;;
15071;SDS011;7635;56.696;13.002;2023-12-07T05:45:24;5.07;;;3.23;;
15071;SDS011;7635;56.696;13.002;2023-12-07T05:47:51;5.30;;;3.17;;
15071;SDS011;7635;56.696;13.002;2023-12-07T05:50:18;7.60;;;4.30;;
15071;SDS011;7635;56.696;13.002;2023-12-07T05:52:46;4.17;;;2.73;;
15071;SDS011;7635;56.696;13.002;2023-12-07T05:55:14;4.93;;;2.90;;
15071;SDS011;7635;56.696;13.002;2023-12-07T05:57:41;5.40;;;3.37;;
15071;SDS011;7635;56.696;13.002;2023-12-07T06:00:08;5.23;;;3.17;;
15071;SDS011;7635;56.696;13.002;2023-12-07T06:02:36;4.80;;;3.33;;
15071;SDS011;7635;56.696;13.002;2023-12-07T06:05:03;4.30;;;3.27;;
15071;SDS011;7635;56.696;13.002;2023-12-07T06:07:30;3.10;;;2.53;;
15071;SDS011;7635;56.696;13.002;2023-12-07T06:09:58;4.00;;;2.97;;
15071;SDS011;7635;56.696;13.002;2023-12-07T06:12:25;4.03;;;2.97;;
15071;SDS011;7635;56.696;13.002;2023-12-07T06:14:52;4.20;;;2.73;;
15071;SDS011;7635;56.696;13.002;2023-12-07T06:17:19;4.53;;;2.93;;
15071;SDS011;7635;56.696;13.002;2023-12-07T06:19:47;3.70;;;2.80;;
15071;SDS011;7635;56.696;13.002;2023-12-07T06:22:14;5.63;;;3.60;;
15071;SDS011;7635;56.696;13.002;2023-12-07T06:24:41;2.53;;;2.30;;
15071;SDS011;7635;56.696;13.002;2023-12-07T06:27:10;3.73;;;2.63;;
15071;SDS011;7635;56.696;13.002;2023-12-07T06:29:37;4.80;;;3.40;;
15071;SDS011;7635;56.696;13.002;2023-12-07T06:32:04;3.93;;;3.03;;
15071;SDS011;7635;56.696;13.002;2023-12-07T06:34:31;5.07;;;2.83;;
15071;SDS011;7635;56.696;13.002;2023-12-07T06:36:58;4.20;;;3.10;;
15071;SDS011;7635;56.696;13.002;2023-12-07T06:39:25;4.80;;;3.53;;
15071;SDS011;7635;56.696;13.002;2023-12-07T06:41:53;3.70;;;2.67;;
15071;SDS011;7635;56.696;13.002;2023-12-07T06:44:21;5.60;;;3.47;;
15071;SDS011;7635;56.696;13.002;2023-12-07T06:46:48;3.77;;;2.77;;
15071;SDS011;7635;56.696;13.002;2023-12-07T06:49:16;5.37;;;3.63;;
15071;SDS011;7635;56.696;13.002;2023-12-07T06:51:44;6.13;;;3.53;;
15071;SDS011;7635;56.696;13.002;2023-12-07T06:54:11;4.90;;;3.43;;
15071;SDS011;7635;56.696;13.002;2023-12-07T06:56:40;4.20;;;3.07;;
15071;SDS011;7635;56.696;13.002;2023-12-07T06:59:07;5.60;;;2.87;;
15071;SDS011;7635;56.696;13.002;2023-12-07T07:01:36;4.90;;;3.00;;
15071;SDS011;7635;56.696;13.002;2023-12-07T07:04:03;3.50;;;3.20;;
15071;SDS011;7635;56.696;13.002;2023-12-07T07:06:31;6.27;;;3.27;;
15071;SDS011;7635;56.696;13.002;2023-12-07T07:08:58;6.27;;;3.00;;
15071;SDS011;7635;56.696;13.002;2023-12-07T07:11:25;6.70;;;3.80;;
15071;SDS011;7635;56.696;13.002;2023-12-07T07:13:53;4.33;;;3.33;;
15071;SDS011;7635;56.696;13.002;2023-12-07T07:16:20;5.27;;;3.47;;
15071;SDS011;7635;56.696;13.002;2023-12-07T07:18:49;5.13;;;3.30;;
15071;SDS011;7635;56.696;13.002;2023-12-07T07:21:16;8.33;;;3.93;;
15071;SDS011;7635;56.696;13.002;2023-12-07T07:23:44;7.87;;;4.00;;
15071;SDS011;7635;56.696;13.002;2023-12-07T07:26:11;4.33;;;3.00;;
15071;SDS011;7635;56.696;13.002;2023-12-07T07:28:41;5.43;;;3.30;;
15071;SDS011;7635;56.696;13.002;2023-12-07T07:31:08;4.37;;;3.47;;
15071;SDS011;7635;56.696;13.002;2023-12-07T07:33:35;4.10;;;3.33;;
15071;SDS011;7635;56.696;13.002;2023-12-07T07:36:04;7.90;;;4.10;;
15071;SDS011;7635;56.696;13.002;2023-12-07T07:38:31;3.77;;;2.60;;
15071;SDS011;7635;56.696;13.002;2023-12-07T07:40:58;5.33;;;3.33;;
15071;SDS011;7635;56.696;13.002;2023-12-07T07:43:25;5.43;;;3.37;;
15071;SDS011;7635;56.696;13.002;2023-12-07T07:45:52;5.30;;;3.77;;
15071;SDS011;7635;56.696;13.002;2023-12-07T07:48:20;6.70;;;3.50;;
15071;SDS011;7635;56.696;13.002;2023-12-07T07:50:47;4.97;;;3.50;;
15071;SDS011;7635;56.696;13.002;2023-12-07T07:53:15;4.10;;;3.20;;
15071;SDS011;7635;56.696;13.002;2023-12-07T07:55:42;6.93;;;3.53;;
15071;SDS011;7635;56.696;13.002;2023-12-07T07:58:09;5.27;;;3.53;;
15071;SDS011;7635;56.696;13.002;2023-12-07T08:00:36;5.33;;;3.80;;
15071;SDS011;7635;56.696;13.002;2023-12-07T08:03:03;5.57;;;3.93;;
15071;SDS011;7635;56.696;13.002;2023-12-07T08:05:30;5.37;;;3.20;;
15071;SDS011;7635;56.696;13.002;2023-12-07T08:07:58;4.50;;;3.37;;
15071;SDS011;7635;56.696;13.002;2023-12-07T08:10:26;4.37;;;3.07;;
15071;SDS011;7635;56.696;13.002;2023-12-07T08:12:53;5.27;;;3.53;;
15071;SDS011;7635;56.696;13.002;2023-12-07T08:15:20;6.07;;;3.53;;
15071;SDS011;7635;56.696;13.002;2023-12-07T08:17:47;5.10;;;3.27;;
15071;SDS011;7635;56.696;13.002;2023-12-07T08:20:15;4.50;;;3.60;;
15071;SDS011;7635;56.696;13.002;2023-12-07T08:22:43;4.27;;;3.13;;
15071;SDS011;7635;56.696;13.002;2023-12-07T08:25:10;5.53;;;3.37;;
15071;SDS011;7635;56.696;13.002;2023-12-07T08:27:38;4.83;;;3.07;;
15071;SDS011;7635;56.696;13.002;2023-12-07T08:30:06;4.53;;;3.00;;
15071;SDS011;7635;56.696;13.002;2023-12-07T08:32:34;6.73;;;3.37;;
15071;SDS011;7635;56.696;13.002;2023-12-07T08:35:01;4.40;;;3.47;;
15071;SDS011;7635;56.696;13.002;2023-12-07T08:37:30;5.93;;;3.60;;
15071;SDS011;7635;56.696;13.002;2023-12-07T08:39:57;4.23;;;2.90;;
15071;SDS011;7635;56.696;13.002;2023-12-07T08:42:24;6.00;;;3.43;;
15071;SDS011;7635;56.696;13.002;2023-12-07T08:44:53;4.07;;;3.23;;
15071;SDS011;7635;56.696;13.002;2023-12-07T08:47:20;6.90;;;3.90;;
15071;SDS011;7635;56.696;13.002;2023-12-07T08:49:47;6.20;;;3.40;;
15071;SDS011;7635;56.696;13.002;2023-12-07T08:52:16;3.80;;;3.13;;
15071;SDS011;7635;56.696;13.002;2023-12-07T08:54:43;4.37;;;2.97;;
15071;SDS011;7635;56.696;13.002;2023-12-07T08:57:11;4.80;;;3.23;;
15071;SDS011;7635;56.696;13.002;2023-12-07T08:59:38;5.10;;;3.50;;
15071;SDS011;7635;56.696;13.002;2023-12-07T09:02:06;5.20;;;3.53;;
15071;SDS011;7635;56.696;13.002;2023-12-07T09:04:33;4.87;;;3.43;;
15071;SDS011;7635;56.696;13.002;2023-12-07T09:07:00;4.77;;;3.27;;
15071;SDS011;7635;56.696;13.002;2023-12-07T09:09:27;4.33;;;3.50;;
15071;SDS011;7635;56.696;13.002;2023-12-07T09:11:54;4.80;;;2.90;;
15071;SDS011;7635;56.696;13.002;2023-12-07T09:14:21;4.97;;;3.20;;
15071;SDS011;7635;56.696;13.002;2023-12-07T09:16:48;5.13;;;3.20;;
15071;SDS011;7635;56.696;13.002;2023-12-07T09:19:17;4.30;;;3.47;;
15071;SDS011;7635;56.696;13.002;2023-12-07T09:21:44;4.93;;;3.27;;
15071;SDS011;7635;56.696;13.002;2023-12-07T09:24:11;3.87;;;3.33;;
15071;SDS011;7635;56.696;13.002;2023-12-07T09:26:38;7.23;;;4.20;;
15071;SDS011;7635;56.696;13.002;2023-12-07T09:29:05;5.37;;;3.90;;
15071;SDS011;7635;56.696;13.002;2023-12-07T09:31:33;4.57;;;3.43;;
15071;SDS011;7635;56.696;13.002;2023-12-07T09:34:00;4.77;;;3.33;;
15071;SDS011;7635;56.696;13.002;2023-12-07T09:36:29;6.00;;;3.70;;
15071;SDS011;7635;56.696;13.002;2023-12-07T09:38:56;5.00;;;3.03;;
15071;SDS011;7635;56.696;13.002;2023-12-07T09:41:23;6.23;;;3.47;;
15071;SDS011;7635;56.696;13.002;2023-12-07T09:43:50;4.43;;;2.90;;
15071;SDS011;7635;56.696;13.002;2023-12-07T09:46:17;6.90;;;3.90;;
15071;SDS011;7635;56.696;13.002;2023-12-07T09:48:45;5.73;;;3.60;;
15071;SDS011;7635;56.696;13.002;2023-12-07T09:51:15;6.10;;;3.80;;
15071;SDS011;7635;56.696;13.002;2023-12-07T09:53:43;6.00;;;3.90;;
15071;SDS011;7635;56.696;13.002;2023-12-07T09:56:11;3.93;;;3.17;;
15071;SDS011;7635;56.696;13.002;2023-12-07T09:58:39;4.57;;;3.00;;
15071;SDS011;7635;56.696;13.002;2023-12-07T10:01:07;3.67;;;2.87;;
15071;SDS011;7635;56.696;13.002;2023-12-07T10:03:34;4.73;;;3.57;;
15071;SDS011;7635;56.696;13.002;2023-12-07T10:06:01;7.30;;;4.07;;
15071;SDS011;7635;56.696;13.002;2023-12-07T10:08:28;4.87;;;3.13;;
15071;SDS011;7635;56.696;13.002;2023-12-07T10:11:04;4.70;;;3.20;;
15071;SDS011;7635;56.696;13.002;2023-12-07T10:13:32;5.83;;;3.63;;
15071;SDS011;7635;56.696;13.002;2023-12-07T10:16:09;3.93;;;3.10;;
15071;SDS011;7635;56.696;13.002;2023-12-07T10:18:36;6.87;;;3.83;;
15071;SDS011;7635;56.696;13.002;2023-12-07T10:21:05;3.97;;;3.13;;
15071;SDS011;7635;56.696;13.002;2023-12-07T10:23:32;4.70;;;3.57;;
15071;SDS011;7635;56.696;13.002;2023-12-07T10:26:00;4.57;;;3.40;;
15071;SDS011;7635;56.696;13.002;2023-12-07T10:28:28;6.77;;;4.20;;
15071;SDS011;7635;56.696;13.002;2023-12-07T10:30:55;4.30;;;3.37;;
15071;SDS011;7635;56.696;13.002;2023-12-07T10:33:25;6.87;;;3.83;;
15071;SDS011;7635;56.696;13.002;2023-12-07T10:35:52;5.77;;;3.67;;
15071;SDS011;7635;56.696;13.002;2023-12-07T10:38:19;5.77;;;3.53;;
15071;SDS011;7635;56.696;13.002;2023-12-07T10:40:46;6.70;;;3.73;;
15071;SDS011;7635;56.696;13.002;2023-12-07T10:43:13;8.07;;;4.23;;
15071;SDS011;7635;56.696;13.002;2023-12-07T10:45:43;7.50;;;3.73;;
15071;SDS011;7635;56.696;13.002;2023-12-07T10:48:11;6.50;;;4.10;;
15071;SDS011;7635;56.696;13.002;2023-12-07T10:50:40;5.90;;;3.73;;
15071;SDS011;7635;56.696;13.002;2023-12-07T10:53:09;3.63;;;2.97;;
15071;SDS011;7635;56.696;13.002;2023-12-07T10:55:38;8.73;;;4.27;;
15071;SDS011;7635;56.696;13.002;2023-12-07T10:58:08;7.50;;;4.67;;
15071;SDS011;7635;56.696;13.002;2023-12-07T11:00:36;5.53;;;3.63;;
15071;SDS011;7635;56.696;13.002;2023-12-07T11:03:05;5.80;;;3.97;;
15071;SDS011;7635;56.696;13.002;2023-12-07T11:05:32;6.33;;;4.10;;
15071;SDS011;7635;56.696;13.002;2023-12-07T11:08:01;6.80;;;3.90;;
15071;SDS011;7635;56.696;13.002;2023-12-07T11:10:30;6.13;;;4.30;;
15071;SDS011;7635;56.696;13.002;2023-12-07T11:13:00;6.17;;;4.00;;
15071;SDS011;7635;56.696;13.002;2023-12-07T11:15:34;6.40;;;4.03;;
15071;SDS011;7635;56.696;13.002;2023-12-07T11:18:01;6.43;;;3.97;;
15071;SDS011;7635;56.696;13.002;2023-12-07T11:20:32;6.53;;;4.77;;
15071;SDS011;7635;56.696;13.002;2023-12-07T11:23:06;4.87;;;3.40;;
15071;SDS011;7635;56.696;13.002;2023-12-07T11:25:34;4.10;;;3.27;;
15071;SDS011;7635;56.696;13.002;2023-12-07T11:28:02;6.63;;;3.47;;
15071;SDS011;7635;56.696;13.002;2023-12-07T11:30:30;4.97;;;3.70;;
15071;SDS011;7635;56.696;13.002;2023-12-07T11:32:57;4.67;;;3.83;;
15071;SDS011;7635;56.696;13.002;2023-12-07T11:35:24;6.93;;;4.30;;
15071;SDS011;7635;56.696;13.002;2023-12-07T11:38:03;6.67;;;3.97;;
15071;SDS011;7635;56.696;13.002;2023-12-07T11:40:31;5.77;;;3.97;;
15071;SDS011;7635;56.696;13.002;2023-12-07T11:42:58;6.13;;;3.80;;
15071;SDS011;7635;56.696;13.002;2023-12-07T11:45:38;6.50;;;3.80;;
15071;SDS011;7635;56.696;13.002;2023-12-07T11:48:06;6.80;;;4.13;;
15071;SDS011;7635;56.696;13.002;2023-12-07T11:50:33;5.03;;;3.33;;
15071;SDS011;7635;56.696;13.002;2023-12-07T11:53:00;6.93;;;4.13;;
15071;SDS011;7635;56.696;13.002;2023-12-07T11:55:29;4.93;;;3.47;;
15071;SDS011;7635;56.696;13.002;2023-12-07T11:57:58;9.43;;;4.20;;
15071;SDS011;7635;56.696;13.002;2023-12-07T12:00:25;4.73;;;3.57;;
15071;SDS011;7635;56.696;13.002;2023-12-07T12:02:52;6.40;;;4.00;;
15071;SDS011;7635;56.696;13.002;2023-12-07T12:05:19;5.97;;;3.83;;
15071;SDS011;7635;56.696;13.002;2023-12-07T12:07:46;5.33;;;3.47;;
15071;SDS011;7635;56.696;13.002;2023-12-07T12:10:13;5.63;;;3.77;;
15071;SDS011;7635;56.696;13.002;2023-12-07T12:12:42;5.63;;;3.73;;
15071;SDS011;7635;56.696;13.002;2023-12-07T12:15:09;5.57;;;3.90;;
15071;SDS011;7635;56.696;13.002;2023-12-07T12:17:36;5.80;;;3.93;;
15071;SDS011;7635;56.696;13.002;2023-12-07T12:20:03;8.03;;;3.63;;
15071;SDS011;7635;56.696;13.002;2023-12-07T12:22:30;4.67;;;3.37;;
15071;SDS011;7635;56.696;13.002;2023-12-07T12:24:58;4.83;;;3.07;;
15071;SDS011;7635;56.696;13.002;2023-12-07T12:27:25;5.40;;;3.33;;
15071;SDS011;7635;56.696;13.002;2023-12-07T12:29:53;4.70;;;3.40;;
15071;SDS011;7635;56.696;13.002;2023-12-07T12:32:20;5.43;;;4.10;;
15071;SDS011;7635;56.696;13.002;2023-12-07T12:34:50;6.30;;;4.00;;
15071;SDS011;7635;56.696;13.002;2023-12-07T12:37:17;6.30;;;3.53;;
15071;SDS011;7635;56.696;13.002;2023-12-07T12:39:44;5.63;;;3.30;;
15071;SDS011;7635;56.696;13.002;2023-12-07T12:42:11;7.37;;;4.00;;
15071;SDS011;7635;56.696;13.002;2023-12-07T12:44:38;4.47;;;3.33;;
15071;SDS011;7635;56.696;13.002;2023-12-07T12:47:07;5.33;;;3.70;;
15071;SDS011;7635;56.696;13.002;2023-12-07T12:49:35;7.07;;;3.57;;
15071;SDS011;7635;56.696;13.002;2023-12-07T12:52:02;5.17;;;3.47;;
15071;SDS011;7635;56.696;13.002;2023-12-07T12:54:30;6.00;;;3.57;;
15071;SDS011;7635;56.696;13.002;2023-12-07T12:56:57;4.70;;;3.43;;
15071;SDS011;7635;56.696;13.002;2023-12-07T12:59:25;5.90;;;3.40;;
15071;SDS011;7635;56.696;13.002;2023-12-07T13:01:52;4.70;;;3.60;;
15071;SDS011;7635;56.696;13.002;2023-12-07T13:04:20;5.83;;;3.00;;
15071;SDS011;7635;56.696;13.002;2023-12-07T13:06:47;5.13;;;3.07;;
15071;SDS011;7635;56.696;13.002;2023-12-07T13:09:14;6.43;;;3.90;;
15071;SDS011;7635;56.696;13.002;2023-12-07T13:11:42;5.30;;;3.23;;
15071;SDS011;7635;56.696;13.002;2023-12-07T13:14:09;5.73;;;3.53;;
15071;SDS011;7635;56.696;13.002;2023-12-07T13:16:36;4.53;;;3.07;;
15071;SDS011;7635;56.696;13.002;2023-12-07T13:19:03;6.77;;;3.90;;
15071;SDS011;7635;56.696;13.002;2023-12-07T13:21:33;6.90;;;3.40;;
15071;SDS011;7635;56.696;13.002;2023-12-07T13:24:00;5.10;;;3.70;;
15071;SDS011;7635;56.696;13.002;2023-12-07T13:26:29;5.17;;;3.53;;
15071;SDS011;7635;56.696;13.002;2023-12-07T13:28:56;5.07;;;3.37;;
15071;SDS011;7635;56.696;13.002;2023-12-07T13:31:23;4.03;;;3.07;;
15071;SDS011;7635;56.696;13.002;2023-12-07T13:33:50;5.00;;;3.77;;
15071;SDS011;7635;56.696;13.002;2023-12-07T13:36:18;4.80;;;3.20;;
15071;SDS011;7635;56.696;13.002;2023-12-07T13:38:47;4.50;;;3.00;;
15071;SDS011;7635;56.696;13.002;2023-12-07T13:41:14;5.37;;;3.50;;
15071;SDS011;7635;56.696;13.002;2023-12-07T13:43:41;5.83;;;3.97;;
15071;SDS011;7635;56.696;13.002;2023-12-07T13:46:08;5.33;;;3.60;;
15071;SDS011;7635;56.696;13.002;2023-12-07T13:48:36;6.63;;;3.43;;
15071;SDS011;7635;56.696;13.002;2023-12-07T13:51:03;4.87;;;3.30;;
15071;SDS011;7635;56.696;13.002;2023-12-07T13:53:31;4.60;;;3.40;;
15071;SDS011;7635;56.696;13.002;2023-12-07T13:56:00;4.33;;;3.37;;
15071;SDS011;7635;56.696;13.002;2023-12-07T13:58:29;6.90;;;3.30;;
15071;SDS011;7635;56.696;13.002;2023-12-07T14:00:56;7.07;;;3.77;;
15071;SDS011;7635;56.696;13.002;2023-12-07T14:03:23;4.17;;;3.13;;
15071;SDS011;7635;56.696;13.002;2023-12-07T14:05:50;5.10;;;3.53;;
15071;SDS011;7635;56.696;13.002;2023-12-07T14:08:17;5.97;;;3.93;;
15071;SDS011;7635;56.696;13.002;2023-12-07T14:10:44;5.63;;;2.90;;
15071;SDS011;7635;56.696;13.002;2023-12-07T14:13:13;5.60;;;3.60;;
15071;SDS011;7635;56.696;13.002;2023-12-07T14:15:42;5.50;;;3.23;;
15071;SDS011;7635;56.696;13.002;2023-12-07T14:18:09;7.13;;;3.57;;
15071;SDS011;7635;56.696;13.002;2023-12-07T14:20:36;4.17;;;3.03;;
15071;SDS011;7635;56.696;13.002;2023-12-07T14:23:03;4.50;;;3.57;;
15071;SDS011;7635;56.696;13.002;2023-12-07T14:25:31;4.00;;;3.20;;
15071;SDS011;7635;56.696;13.002;2023-12-07T14:27:58;4.57;;;3.03;;
15071;SDS011;7635;56.696;13.002;2023-12-07T14:30:27;5.60;;;2.87;;
15071;SDS011;7635;56.696;13.002;2023-12-07T14:32:54;5.03;;;3.60;;
15071;SDS011;7635;56.696;13.002;2023-12-07T14:35:21;4.30;;;3.30;;
15071;SDS011;7635;56.696;13.002;2023-12-07T14:37:48;3.93;;;2.90;;
15071;SDS011;7635;56.696;13.002;2023-12-07T14:40:15;4.10;;;3.37;;
15071;SDS011;7635;56.696;13.002;2023-12-07T14:42:43;4.53;;;3.03;;
15071;SDS011;7635;56.696;13.002;2023-12-07T14:45:10;4.70;;;2.93;;
15071;SDS011;7635;56.696;13.002;2023-12-07T14:47:39;4.90;;;3.07;;
15071;SDS011;7635;56.696;13.002;2023-12-07T14:50:07;3.80;;;2.93;;